aviador You're here:

LFRM Decoded Metar

LE MANS in FRANCE
Report Time2017-08-23 04:00:00
UTC Time2017-08-23 04:13:45
Flight Rules vfr VFR
WindVRB at 02 kt
Visibility9999 m
Phenomena:N/A
Clouds:N/A
Expected CloudBase > 400 ft AGL from Temp-Dew spread
CeilingNone
Temp18°C (ISA +3)
Dew Point17°C (94% RH)
QNH1013 hPa
Density Alt820 ft
Elevation171 ft
Report Wrong Elevation
Raw Report
LFRM 230400Z AUTO VRB02KT CAVOK 18/17 Q1013=

Extra information for LFRM:More info

Metar Taf Metar & Taf Last 4 Metars F.Rules Stats Wind Profile Meteogram Temp Stats Airport Information Weather charts Add Link Nearby VenuesMetar ALERT Operation Metar Decoded Social comments